createdAt,value
2023-05-16T00:01:33.254Z,4.78
2023-05-16T00:03:59.991Z,4.05
2023-05-16T00:06:26.751Z,4.60
2023-05-16T00:08:53.218Z,4.60
2023-05-16T00:11:19.695Z,4.00
2023-05-16T00:13:47.807Z,4.30
2023-05-16T00:16:14.886Z,4.80
2023-05-16T00:18:41.603Z,5.00
2023-05-16T00:21:08.220Z,5.70
2023-05-16T00:23:34.817Z,4.82
2023-05-16T00:26:01.483Z,4.72
2023-05-16T00:28:28.014Z,5.18
2023-05-16T00:30:54.435Z,4.90
2023-05-16T00:33:20.923Z,4.38
2023-05-16T00:35:47.468Z,4.75
2023-05-16T00:38:13.993Z,4.95
2023-05-16T00:40:40.502Z,5.20
2023-05-16T00:43:06.976Z,5.18
2023-05-16T00:45:33.493Z,4.63
2023-05-16T00:48:00.000Z,5.40
2023-05-16T00:50:26.907Z,5.45
2023-05-16T00:52:53.747Z,5.82
2023-05-16T00:55:20.493Z,5.15
2023-05-16T00:57:49.332Z,4.90
2023-05-16T01:00:16.446Z,5.63
2023-05-16T01:02:43.637Z,5.40
2023-05-16T01:05:10.238Z,5.45
2023-05-16T01:07:36.893Z,5.65
2023-05-16T01:10:05.203Z,5.80
2023-05-16T01:12:32.639Z,5.90
2023-05-16T01:15:32.722Z,5.10
2023-05-16T01:18:17.600Z,5.38
2023-05-16T01:20:56.887Z,5.38
2023-05-16T01:23:55.026Z,5.70
2023-05-16T01:26:23.633Z,5.28
2023-05-16T01:28:51.760Z,5.40
2023-05-16T01:31:19.314Z,4.82
2023-05-16T01:33:45.878Z,6.00
2023-05-16T01:36:24.313Z,5.78
2023-05-16T01:39:32.312Z,5.30
2023-05-16T01:42:04.676Z,5.32
2023-05-16T01:44:54.207Z,5.22
2023-05-16T01:47:25.395Z,5.45
2023-05-16T01:50:09.084Z,5.32
2023-05-16T01:52:42.422Z,5.00
2023-05-16T01:55:18.896Z,5.10
2023-05-16T01:57:46.120Z,4.78
2023-05-16T02:00:13.192Z,4.80
2023-05-16T02:02:39.772Z,4.97
2023-05-16T02:05:06.764Z,4.90
2023-05-16T02:07:34.155Z,4.78
2023-05-16T02:10:00.736Z,4.43
2023-05-16T02:12:27.164Z,4.65
2023-05-16T02:14:53.672Z,4.85
2023-05-16T02:17:20.228Z,4.00
2023-05-16T02:19:46.833Z,4.68
2023-05-16T02:22:13.348Z,4.40
2023-05-16T02:24:39.788Z,3.88
2023-05-16T02:27:06.204Z,3.80
2023-05-16T02:29:33.244Z,4.10
2023-05-16T02:32:00.065Z,4.25
2023-05-16T02:34:26.538Z,4.43
2023-05-16T02:36:53.204Z,4.45
2023-05-16T02:39:19.660Z,4.60
2023-05-16T02:41:46.129Z,4.55
2023-05-16T02:44:12.719Z,5.18
2023-05-16T02:46:39.209Z,4.57
2023-05-16T02:49:05.718Z,5.05
2023-05-16T02:51:32.207Z,4.80
2023-05-16T02:54:03.610Z,5.20
2023-05-16T02:56:30.316Z,4.50
2023-05-16T02:58:56.879Z,4.75
2023-05-16T03:01:23.644Z,4.70
2023-05-16T03:03:50.550Z,5.22
2023-05-16T03:06:17.142Z,5.18
2023-05-16T03:08:43.782Z,6.95
2023-05-16T03:11:10.311Z,6.50
2023-05-16T03:13:37.072Z,6.65
2023-05-16T03:16:03.786Z,7.18
2023-05-16T03:18:30.911Z,6.85
2023-05-16T03:20:58.166Z,7.15
2023-05-16T03:23:24.939Z,6.57
2023-05-16T03:25:51.795Z,6.53
2023-05-16T03:28:18.419Z,6.60
2023-05-16T03:30:45.089Z,6.90
2023-05-16T03:33:11.806Z,6.30
2023-05-16T03:35:38.732Z,5.57
2023-05-16T04:12:04.240Z,2.92
2023-05-16T04:14:30.873Z,3.22
2023-05-16T04:16:57.395Z,3.10
2023-05-16T04:19:24.246Z,3.03
2023-05-16T04:21:50.766Z,3.38
2023-05-16T04:24:17.246Z,2.92
2023-05-16T04:26:43.770Z,3.30
2023-05-16T04:29:10.282Z,3.08
2023-05-16T04:31:37.925Z,2.83
2023-05-16T04:34:04.794Z,3.22
2023-05-16T04:36:32.644Z,3.57
2023-05-16T04:39:00.251Z,2.93
2023-05-16T04:41:26.812Z,2.80
2023-05-16T04:43:54.321Z,3.00
2023-05-16T04:46:21.101Z,3.15
2023-05-16T04:48:47.658Z,3.05
2023-05-16T04:51:14.246Z,2.43
2023-05-16T04:53:40.829Z,2.97
2023-05-16T04:56:13.028Z,2.50
2023-05-16T04:58:41.636Z,2.95
2023-05-16T05:01:09.324Z,2.50
2023-05-16T05:03:36.485Z,2.78
2023-05-16T05:06:03.622Z,2.55
2023-05-16T05:08:30.572Z,2.80
2023-05-16T05:10:59.342Z,2.45
2023-05-16T05:13:25.974Z,2.55
2023-05-16T05:15:52.507Z,2.45
2023-05-16T05:18:19.166Z,2.28
2023-05-16T05:20:45.739Z,2.08
2023-05-16T05:23:12.781Z,2.33
2023-05-16T05:25:39.467Z,2.33
2023-05-16T05:28:06.169Z,2.10
2023-05-16T05:30:32.701Z,2.03
2023-05-16T05:32:59.546Z,2.00
2023-05-16T05:35:26.470Z,2.05
2023-05-16T05:37:53.184Z,1.92
2023-05-16T05:40:19.656Z,2.13
2023-05-16T05:42:47.278Z,1.80
2023-05-16T05:45:15.399Z,2.40
2023-05-16T05:47:42.703Z,2.00
2023-05-16T05:50:11.469Z,2.03
2023-05-16T05:52:38.705Z,1.92
2023-05-16T05:55:05.790Z,1.98
2023-05-16T05:57:32.393Z,2.50
2023-05-16T05:59:58.871Z,2.20
2023-05-16T06:02:25.507Z,2.00
2023-05-16T06:04:52.108Z,2.30
2023-05-16T06:07:18.572Z,2.00
2023-05-16T06:09:45.447Z,2.05
2023-05-16T06:19:23.273Z,1.80
2023-05-16T06:24:56.961Z,1.95
2023-05-16T06:30:48.720Z,1.80
2023-05-16T06:33:45.429Z,1.50
2023-05-16T06:36:28.033Z,1.80
2023-05-16T06:39:08.166Z,1.90
2023-05-16T06:41:40.078Z,1.67
2023-05-16T06:44:15.429Z,1.60
2023-05-16T06:47:04.631Z,1.55
2023-05-16T06:50:23.941Z,1.75
2023-05-16T06:52:56.350Z,1.60
2023-05-16T06:55:48.196Z,1.45
2023-05-16T06:58:13.321Z,1.83
2023-05-16T07:00:47.802Z,1.50
2023-05-16T07:03:20.604Z,1.90
2023-05-16T07:09:39.315Z,2.00
2023-05-16T07:18:31.313Z,1.50
2023-05-16T07:20:58.062Z,1.70
2023-05-16T07:26:31.500Z,1.80
2023-05-16T07:28:59.044Z,1.75
2023-05-16T07:31:36.110Z,1.52
2023-05-16T07:34:30.790Z,1.60
2023-05-16T07:40:15.541Z,1.60
2023-05-16T07:42:48.649Z,1.40
2023-05-16T07:45:30.012Z,1.70
2023-05-16T07:51:30.896Z,1.40
2023-05-16T07:54:10.204Z,1.45
2023-05-16T07:56:42.284Z,1.48
2023-05-16T08:02:52.931Z,2.10
2023-05-16T08:05:23.803Z,2.10
2023-05-16T08:14:35.520Z,1.75
2023-05-16T08:17:59.763Z,1.70
2023-05-16T08:20:26.866Z,1.50
2023-05-16T08:22:54.895Z,2.08
2023-05-16T08:25:21.622Z,1.88
2023-05-16T08:27:50.504Z,1.30
2023-05-16T08:30:17.146Z,1.42
2023-05-16T08:32:44.038Z,1.83
2023-05-16T08:35:11.293Z,2.50
2023-05-16T08:37:37.897Z,1.33
2023-05-16T08:40:08.393Z,1.48
2023-05-16T08:42:35.472Z,1.45
2023-05-16T08:45:09.749Z,1.55
2023-05-16T08:47:41.208Z,1.60
2023-05-16T08:50:10.002Z,1.58
2023-05-16T08:52:40.136Z,1.70
2023-05-16T08:55:11.502Z,1.35
2023-05-16T08:57:39.189Z,1.90
2023-05-16T09:00:11.635Z,1.30
2023-05-16T09:02:42.580Z,1.42
2023-05-16T09:05:11.842Z,1.40
2023-05-16T09:07:38.651Z,1.65
2023-05-16T09:10:06.990Z,1.60
2023-05-16T09:12:34.623Z,1.60
2023-05-16T09:15:03.864Z,1.65
2023-05-16T09:17:40.105Z,1.63
2023-05-16T09:20:34.176Z,1.40
2023-05-16T09:23:00.942Z,1.65
2023-05-16T09:25:32.107Z,1.50
2023-05-16T09:28:02.891Z,1.27
2023-05-16T09:30:34.568Z,1.27
2023-05-16T09:33:02.073Z,1.48
2023-05-16T09:35:42.921Z,1.73
2023-05-16T09:38:16.066Z,1.10
2023-05-16T09:40:43.047Z,1.48
2023-05-16T09:43:09.602Z,1.30
2023-05-16T09:45:37.166Z,1.27
2023-05-16T09:48:08.839Z,1.52
2023-05-16T09:50:37.601Z,1.55
2023-05-16T09:53:05.232Z,1.40
2023-05-16T09:55:32.481Z,1.70
2023-05-16T09:57:59.100Z,1.50
2023-05-16T10:00:31.425Z,1.27
2023-05-16T10:03:04.249Z,1.52
2023-05-16T10:05:31.985Z,1.48
2023-05-16T10:07:59.010Z,1.35
2023-05-16T10:10:27.045Z,1.40
2023-05-16T10:13:43.280Z,1.40
2023-05-16T10:16:12.421Z,1.25
2023-05-16T10:18:40.539Z,1.48
2023-05-16T10:21:15.111Z,1.67
2023-05-16T10:23:43.038Z,1.40
2023-05-16T10:26:14.344Z,1.45
2023-05-16T10:28:41.962Z,1.50
2023-05-16T10:31:11.216Z,1.30
2023-05-16T10:33:38.846Z,1.70
2023-05-16T10:36:05.981Z,1.30
2023-05-16T10:38:34.582Z,1.35
2023-05-16T10:41:02.172Z,1.20
2023-05-16T10:43:32.617Z,1.40
2023-05-16T10:46:11.345Z,1.60
2023-05-16T10:48:42.223Z,1.30
2023-05-16T10:51:24.048Z,1.20
2023-05-16T10:53:54.944Z,1.25
2023-05-16T10:56:26.771Z,1.45
2023-05-16T10:58:54.730Z,1.60
2023-05-16T11:01:30.136Z,1.52
2023-05-16T11:04:05.267Z,1.50
2023-05-16T11:06:33.152Z,1.30
2023-05-16T11:09:08.631Z,1.70
2023-05-16T11:11:53.532Z,1.25
2023-05-16T11:14:22.138Z,1.20
2023-05-16T11:17:07.778Z,1.52
2023-05-16T11:19:46.286Z,1.30
2023-05-16T11:22:19.317Z,1.13
2023-05-16T11:24:52.516Z,1.42
2023-05-16T11:27:24.746Z,1.20
2023-05-16T11:30:05.011Z,1.20
2023-05-16T11:32:38.648Z,1.88
2023-05-16T11:35:09.057Z,1.90
2023-05-16T11:37:39.704Z,1.30
2023-05-16T11:40:08.665Z,1.15
2023-05-16T11:42:53.528Z,1.55
2023-05-16T11:45:30.554Z,1.30
2023-05-16T11:48:04.629Z,1.67
2023-05-16T11:50:31.744Z,1.50
2023-05-16T11:52:58.602Z,1.00
2023-05-16T11:55:41.755Z,1.50
2023-05-16T11:58:10.456Z,1.30
2023-05-16T12:00:37.861Z,1.60
2023-05-16T12:03:05.807Z,1.40
2023-05-16T12:05:34.710Z,1.20
2023-05-16T12:08:05.935Z,1.50
2023-05-16T12:10:36.054Z,1.38
2023-05-16T12:13:03.898Z,1.50
2023-05-16T12:15:33.961Z,1.25
2023-05-16T12:18:01.530Z,1.45
2023-05-16T12:20:39.126Z,1.17
2023-05-16T12:23:05.867Z,1.27
2023-05-16T12:26:11.256Z,1.23
2023-05-16T12:28:39.593Z,1.30
2023-05-16T12:31:31.879Z,1.50
2023-05-16T12:34:41.681Z,1.30
2023-05-16T12:37:08.420Z,1.42
2023-05-16T12:39:38.881Z,1.30
2023-05-16T12:42:07.605Z,1.27
2023-05-16T12:44:34.186Z,1.40
2023-05-16T12:47:00.860Z,1.15
2023-05-16T12:49:27.560Z,1.27
2023-05-16T12:51:55.877Z,1.30
2023-05-16T12:54:23.337Z,1.13
2023-05-16T12:56:50.967Z,1.20
2023-05-16T12:59:19.103Z,1.30
2023-05-16T13:01:46.484Z,1.40
2023-05-16T13:04:19.297Z,1.30
2023-05-16T13:06:58.378Z,1.45
2023-05-16T13:09:29.874Z,1.20
2023-05-16T13:14:43.960Z,1.10
2023-05-16T13:17:11.905Z,1.20
2023-05-16T13:19:40.641Z,1.23
2023-05-16T13:22:07.201Z,1.13
2023-05-16T13:24:34.348Z,1.40
2023-05-16T13:27:01.004Z,1.50
2023-05-16T13:29:27.948Z,1.50
2023-05-16T13:31:58.185Z,1.20
2023-05-16T13:38:27.159Z,1.73
2023-05-16T13:40:59.693Z,1.13
2023-05-16T13:43:26.204Z,1.05
2023-05-16T13:45:52.857Z,1.30
2023-05-16T13:48:19.548Z,1.10
2023-05-16T13:50:47.254Z,1.10
2023-05-16T13:53:14.385Z,1.52
2023-05-16T13:55:40.963Z,1.30
2023-05-16T13:58:07.503Z,1.13
2023-05-16T14:00:44.330Z,1.25
2023-05-16T14:03:12.216Z,1.20
2023-05-16T14:05:38.745Z,1.05
2023-05-16T14:08:05.544Z,1.15
2023-05-16T14:10:32.195Z,1.50
2023-05-16T14:12:58.697Z,1.52
2023-05-16T14:15:25.273Z,1.45
2023-05-16T14:17:51.935Z,1.40
2023-05-16T14:20:18.743Z,1.52
2023-05-16T14:22:45.378Z,1.27
2023-05-16T14:25:11.873Z,1.45
2023-05-16T14:27:38.380Z,1.25
2023-05-16T14:30:06.801Z,1.40
2023-05-16T14:32:33.898Z,1.10
2023-05-16T14:35:00.719Z,1.25
2023-05-16T14:37:27.458Z,1.35
2023-05-16T14:39:55.147Z,1.20
2023-05-16T14:42:21.773Z,1.30
2023-05-16T14:44:48.504Z,1.50
2023-05-16T14:47:15.483Z,1.50
2023-05-16T14:49:42.075Z,1.40
2023-05-16T14:52:08.753Z,1.40
2023-05-16T14:54:35.677Z,1.20
2023-05-16T14:57:03.977Z,1.40
2023-05-16T14:59:30.633Z,1.70
2023-05-16T15:01:57.369Z,1.45
2023-05-16T15:04:24.138Z,1.52
2023-05-16T15:06:50.777Z,1.33
2023-05-16T15:09:19.029Z,1.70
2023-05-16T15:11:46.137Z,1.50
2023-05-16T15:14:12.776Z,1.40
2023-05-16T15:16:39.414Z,1.52
2023-05-16T15:19:06.058Z,1.55
2023-05-16T15:21:32.839Z,1.67
2023-05-16T15:24:00.715Z,1.60
2023-05-16T15:26:27.626Z,1.73
2023-05-16T15:28:55.660Z,1.70
2023-05-16T15:31:22.423Z,1.77
2023-05-16T15:33:49.094Z,1.67
2023-05-16T15:36:15.690Z,1.67
2023-05-16T15:38:45.477Z,1.40
2023-05-16T15:41:19.745Z,1.73
2023-05-16T15:43:53.316Z,1.67
2023-05-16T15:46:19.987Z,1.42
2023-05-16T15:48:46.644Z,1.48
2023-05-16T15:51:13.619Z,1.50
2023-05-16T15:53:40.227Z,1.80
2023-05-16T15:56:08.263Z,1.50
2023-05-16T15:58:35.297Z,1.90
2023-05-16T16:01:02.236Z,1.60
2023-05-16T16:03:29.052Z,1.90
2023-05-16T16:05:55.964Z,1.90
2023-05-16T16:08:22.714Z,1.80
2023-05-16T16:10:49.308Z,1.70
2023-05-16T16:13:15.912Z,1.80
2023-05-16T16:15:42.588Z,1.50
2023-05-16T16:18:09.496Z,1.60
2023-05-16T16:20:36.218Z,1.70
2023-05-16T16:23:02.989Z,1.60
2023-05-16T16:25:30.990Z,1.55
2023-05-16T16:28:06.982Z,1.80
2023-05-16T16:30:36.742Z,1.83
2023-05-16T16:33:04.298Z,1.77
2023-05-16T16:35:31.278Z,1.73
2023-05-16T16:38:06.081Z,1.70
2023-05-16T16:40:40.186Z,1.70
2023-05-16T16:43:07.437Z,1.70
2023-05-16T16:45:48.036Z,1.98
2023-05-16T16:48:14.672Z,1.60
2023-05-16T16:50:41.615Z,2.85
2023-05-16T16:53:08.454Z,1.88
2023-05-16T16:55:35.991Z,1.80
2023-05-16T16:58:03.116Z,1.80
2023-05-16T17:00:29.885Z,1.50
2023-05-16T17:02:56.849Z,1.75
2023-05-16T17:05:23.529Z,1.80
2023-05-16T17:07:50.253Z,1.52
2023-05-16T17:10:17.749Z,1.40
2023-05-16T17:12:49.417Z,1.52
2023-05-16T17:15:17.502Z,1.58
2023-05-16T17:17:49.306Z,1.63
2023-05-16T17:20:16.579Z,2.90
2023-05-16T17:22:43.127Z,2.30
2023-05-16T17:25:10.161Z,1.75
2023-05-16T17:27:36.893Z,1.98
2023-05-16T17:30:04.962Z,2.40
2023-05-16T17:32:31.706Z,1.80
2023-05-16T17:35:03.282Z,9.68
2023-05-16T17:37:31.087Z,4.13
2023-05-16T17:39:58.926Z,5.68
2023-05-16T17:42:26.166Z,1.60
2023-05-16T17:44:53.457Z,2.20
2023-05-16T17:47:22.434Z,1.88
2023-05-16T17:49:49.996Z,1.98
2023-05-16T17:52:17.473Z,1.92
2023-05-16T17:54:44.609Z,1.80
2023-05-16T17:57:11.621Z,2.15
2023-05-16T17:59:38.476Z,1.88
2023-05-16T18:02:08.864Z,2.10
2023-05-16T18:04:35.688Z,2.00
2023-05-16T18:07:02.953Z,1.85
2023-05-16T18:09:29.449Z,3.00
2023-05-16T18:11:56.861Z,2.10
2023-05-16T18:14:23.710Z,1.88
2023-05-16T18:16:50.370Z,1.60
2023-05-16T18:19:17.139Z,2.47
2023-05-16T18:21:44.918Z,1.92
2023-05-16T18:24:13.027Z,2.10
2023-05-16T18:26:39.776Z,2.38
2023-05-16T18:29:06.282Z,1.70
2023-05-16T18:31:33.804Z,2.05
2023-05-16T18:34:04.049Z,2.17
2023-05-16T18:36:31.063Z,2.00
2023-05-16T18:38:57.621Z,1.98
2023-05-16T18:41:26.436Z,2.00
2023-05-16T18:43:52.955Z,1.80
2023-05-16T18:46:19.526Z,2.03
2023-05-16T18:48:46.415Z,2.13
2023-05-16T18:51:13.025Z,2.20
2023-05-16T18:53:41.216Z,2.10
2023-05-16T18:56:07.864Z,2.10
2023-05-16T18:58:34.516Z,2.10
2023-05-16T19:01:01.953Z,2.50
2023-05-16T19:03:28.616Z,2.00
2023-05-16T19:05:55.642Z,2.33
2023-05-16T19:08:25.538Z,2.35
2023-05-16T19:10:56.288Z,2.08
2023-05-16T19:13:22.834Z,2.63
2023-05-16T19:15:53.220Z,1.95
2023-05-16T19:18:19.986Z,2.17
2023-05-16T19:20:46.721Z,2.40
2023-05-16T19:23:15.681Z,2.30
2023-05-16T19:25:47.251Z,1.80
2023-05-16T19:28:14.569Z,2.10
2023-05-16T19:30:41.293Z,1.90
2023-05-16T19:33:08.068Z,1.95
2023-05-16T19:35:34.991Z,2.30
2023-05-16T19:38:02.555Z,2.03
2023-05-16T19:40:29.800Z,1.95
2023-05-16T19:42:56.643Z,2.00
2023-05-16T19:45:23.447Z,2.20
2023-05-16T19:47:50.182Z,1.92
2023-05-16T19:50:19.606Z,1.90
2023-05-16T19:52:46.205Z,2.25
2023-05-16T19:55:13.326Z,2.20
2023-05-16T19:57:39.842Z,1.85
2023-05-16T20:00:08.308Z,1.80
2023-05-16T20:02:35.193Z,2.08
2023-05-16T20:05:01.787Z,2.20
2023-05-16T20:07:28.743Z,1.83
2023-05-16T20:09:55.825Z,2.20
2023-05-16T20:12:22.409Z,2.10
2023-05-16T20:14:48.984Z,2.10
2023-05-16T20:17:15.748Z,2.10
2023-05-16T20:19:43.977Z,1.73
2023-05-16T20:22:10.883Z,2.00
2023-05-16T20:24:37.716Z,2.20
2023-05-16T20:27:04.869Z,1.98
2023-05-16T20:29:33.947Z,2.30
2023-05-16T20:32:00.935Z,2.13
2023-05-16T20:34:28.159Z,2.03
2023-05-16T20:36:54.820Z,2.15
2023-05-16T20:39:21.360Z,2.10
2023-05-16T20:41:48.110Z,2.92
2023-05-16T20:44:15.585Z,1.90
2023-05-16T20:46:43.194Z,2.10
2023-05-16T20:49:09.811Z,2.13
2023-05-16T20:51:36.398Z,2.13
2023-05-16T20:54:03.018Z,1.75
2023-05-16T20:56:29.550Z,2.30
2023-05-16T20:58:56.065Z,1.85
2023-05-16T21:01:23.145Z,1.80
2023-05-16T21:03:50.793Z,1.88
2023-05-16T21:06:21.214Z,1.92
2023-05-16T21:08:48.080Z,1.75
2023-05-16T21:11:14.956Z,2.63
2023-05-16T21:13:43.413Z,3.88
2023-05-16T21:16:24.952Z,2.25
2023-05-16T21:18:56.419Z,2.42
2023-05-16T21:21:24.972Z,1.90
2023-05-16T21:23:56.263Z,2.15
2023-05-16T21:26:23.792Z,1.90
2023-05-16T21:28:54.995Z,2.10
2023-05-16T21:31:23.471Z,2.35
2023-05-16T21:33:53.079Z,2.20
2023-05-16T21:36:22.735Z,1.90
2023-05-16T21:38:49.380Z,2.00
2023-05-16T21:41:18.042Z,2.15
2023-05-16T21:43:44.653Z,2.30
2023-05-16T21:46:11.159Z,1.80
2023-05-16T21:48:37.785Z,1.83
2023-05-16T21:51:04.509Z,1.65
2023-05-16T21:53:31.101Z,1.77
2023-05-16T21:55:57.595Z,1.90
2023-05-16T21:58:25.225Z,1.80
2023-05-16T22:00:51.936Z,1.85
2023-05-16T22:03:21.068Z,2.33
2023-05-16T22:05:47.889Z,1.60
2023-05-16T22:08:14.497Z,1.95
2023-05-16T22:10:41.070Z,1.88
2023-05-16T22:13:08.081Z,1.60
2023-05-16T22:15:34.893Z,1.67
2023-05-16T22:18:01.789Z,1.80
2023-05-16T22:20:29.692Z,1.63
2023-05-16T22:22:56.359Z,1.90
2023-05-16T22:25:22.966Z,2.22
2023-05-16T22:27:49.478Z,1.98
2023-05-16T22:30:16.055Z,1.67
2023-05-16T22:32:43.082Z,1.90
2023-05-16T22:35:09.800Z,1.60
2023-05-16T22:37:36.430Z,1.80
2023-05-16T22:40:02.913Z,1.80
2023-05-16T22:42:30.583Z,1.70
2023-05-16T22:44:57.270Z,1.83
2023-05-16T22:47:23.794Z,1.60
2023-05-16T22:49:50.979Z,2.00
2023-05-16T22:52:17.507Z,2.17
2023-05-16T22:54:44.026Z,2.55
2023-05-16T22:57:10.609Z,1.90
2023-05-16T22:59:37.109Z,1.95
2023-05-16T23:02:03.703Z,2.38
2023-05-16T23:04:30.437Z,1.85
2023-05-16T23:06:56.981Z,1.92
2023-05-16T23:09:23.584Z,1.70
2023-05-16T23:11:50.104Z,1.65
2023-05-16T23:14:16.710Z,2.00
2023-05-16T23:16:43.213Z,1.75
2023-05-16T23:19:09.930Z,1.40
2023-05-16T23:21:36.542Z,1.67
2023-05-16T23:24:04.533Z,2.10
2023-05-16T23:26:31.412Z,1.80
2023-05-16T23:28:57.917Z,2.20
2023-05-16T23:31:24.463Z,1.70
2023-05-16T23:33:51.050Z,2.30
2023-05-16T23:36:17.696Z,2.10
2023-05-16T23:38:44.298Z,2.00
2023-05-16T23:41:10.901Z,2.25
2023-05-16T23:43:37.457Z,2.10
2023-05-16T23:46:04.325Z,2.05
2023-05-16T23:48:30.924Z,1.80
2023-05-16T23:50:57.448Z,2.00
2023-05-16T23:53:28.891Z,1.92
2023-05-16T23:55:55.715Z,2.15
2023-05-16T23:58:22.221Z,1.83
